sensor_id;sensor_type;location;lat;lon;timestamp;temperature;humidity
36856;DHT22;22788;51.434;6.786;2022-11-20T00:00:44;6.60;82.60
36856;DHT22;22788;51.434;6.786;2022-11-20T00:03:10;6.60;82.80
36856;DHT22;22788;51.434;6.786;2022-11-20T00:05:37;6.50;83.10
36856;DHT22;22788;51.434;6.786;2022-11-20T00:08:03;6.50;83.40
36856;DHT22;22788;51.434;6.786;2022-11-20T00:10:29;6.40;83.40
36856;DHT22;22788;51.434;6.786;2022-11-20T00:12:55;6.50;83.60
36856;DHT22;22788;51.434;6.786;2022-11-20T00:15:22;6.50;83.30
36856;DHT22;22788;51.434;6.786;2022-11-20T00:17:48;6.60;83.10
36856;DHT22;22788;51.434;6.786;2022-11-20T00:20:14;6.50;83.10
36856;DHT22;22788;51.434;6.786;2022-11-20T00:22:40;6.50;83.20
36856;DHT22;22788;51.434;6.786;2022-11-20T00:25:07;6.50;83.10
36856;DHT22;22788;51.434;6.786;2022-11-20T00:27:33;6.50;83.00
36856;DHT22;22788;51.434;6.786;2022-11-20T00:29:59;6.40;83.30
36856;DHT22;22788;51.434;6.786;2022-11-20T00:32:26;6.30;83.80
36856;DHT22;22788;51.434;6.786;2022-11-20T00:34:52;6.40;83.70
36856;DHT22;22788;51.434;6.786;2022-11-20T00:37:18;6.40;83.50
36856;DHT22;22788;51.434;6.786;2022-11-20T00:39:44;6.50;83.20
36856;DHT22;22788;51.434;6.786;2022-11-20T00:42:10;6.50;83.00
36856;DHT22;22788;51.434;6.786;2022-11-20T00:44:36;6.60;83.00
36856;DHT22;22788;51.434;6.786;2022-11-20T00:47:02;6.60;83.00
36856;DHT22;22788;51.434;6.786;2022-11-20T00:49:30;6.50;83.00
36856;DHT22;22788;51.434;6.786;2022-11-20T00:51:56;6.50;83.20
36856;DHT22;22788;51.434;6.786;2022-11-20T00:54:22;6.60;82.90
36856;DHT22;22788;51.434;6.786;2022-11-20T00:56:48;6.60;82.80
36856;DHT22;22788;51.434;6.786;2022-11-20T00:59:14;6.40;83.10
36856;DHT22;22788;51.434;6.786;2022-11-20T01:01:40;6.40;83.70
36856;DHT22;22788;51.434;6.786;2022-11-20T01:04:06;6.30;83.60
36856;DHT22;22788;51.434;6.786;2022-11-20T01:06:35;6.40;83.40
36856;DHT22;22788;51.434;6.786;2022-11-20T01:09:03;6.40;83.60
36856;DHT22;22788;51.434;6.786;2022-11-20T01:11:32;6.40;83.40
36856;DHT22;22788;51.434;6.786;2022-11-20T01:14:00;6.40;83.30
36856;DHT22;22788;51.434;6.786;2022-11-20T01:16:28;6.40;83.50
36856;DHT22;22788;51.434;6.786;2022-11-20T01:18:57;6.30;83.70
36856;DHT22;22788;51.434;6.786;2022-11-20T01:21:25;6.40;83.50
36856;DHT22;22788;51.434;6.786;2022-11-20T01:23:52;6.40;83.40
36856;DHT22;22788;51.434;6.786;2022-11-20T01:26:20;6.40;83.50
36856;DHT22;22788;51.434;6.786;2022-11-20T01:28:47;6.40;83.30
36856;DHT22;22788;51.434;6.786;2022-11-20T01:31:15;6.40;83.40
36856;DHT22;22788;51.434;6.786;2022-11-20T01:33:42;6.40;83.50
36856;DHT22;22788;51.434;6.786;2022-11-20T01:36:10;6.30;83.40
36856;DHT22;22788;51.434;6.786;2022-11-20T01:38:36;6.30;83.70
36856;DHT22;22788;51.434;6.786;2022-11-20T01:41:05;6.30;83.60
36856;DHT22;22788;51.434;6.786;2022-11-20T01:43:31;6.40;83.30
36856;DHT22;22788;51.434;6.786;2022-11-20T01:46:14;6.40;83.30
36856;DHT22;22788;51.434;6.786;2022-11-20T01:48:46;6.40;83.20
36856;DHT22;22788;51.434;6.786;2022-11-20T01:51:21;6.40;83.30
36856;DHT22;22788;51.434;6.786;2022-11-20T01:53:49;6.40;83.50
36856;DHT22;22788;51.434;6.786;2022-11-20T01:56:17;6.20;83.80
36856;DHT22;22788;51.434;6.786;2022-11-20T01:58:47;6.10;83.90
36856;DHT22;22788;51.434;6.786;2022-11-20T02:01:14;6.10;84.50
36856;DHT22;22788;51.434;6.786;2022-11-20T02:03:40;6.20;84.30
36856;DHT22;22788;51.434;6.786;2022-11-20T02:06:11;6.20;84.40
36856;DHT22;22788;51.434;6.786;2022-11-20T02:08:38;6.30;83.80
36856;DHT22;22788;51.434;6.786;2022-11-20T02:11:04;6.30;83.60
36856;DHT22;22788;51.434;6.786;2022-11-20T02:13:33;6.20;83.80
36856;DHT22;22788;51.434;6.786;2022-11-20T02:15:59;6.10;84.40
36856;DHT22;22788;51.434;6.786;2022-11-20T02:18:26;6.10;84.20
36856;DHT22;22788;51.434;6.786;2022-11-20T02:20:58;6.10;84.70
36856;DHT22;22788;51.434;6.786;2022-11-20T02:23:30;6.00;84.60
36856;DHT22;22788;51.434;6.786;2022-11-20T02:26:01;6.00;85.00
36856;DHT22;22788;51.434;6.786;2022-11-20T02:28:28;6.10;84.60
36856;DHT22;22788;51.434;6.786;2022-11-20T02:30:54;6.10;84.80
36856;DHT22;22788;51.434;6.786;2022-11-20T02:33:20;5.90;85.20
36856;DHT22;22788;51.434;6.786;2022-11-20T02:35:46;6.00;85.40
36856;DHT22;22788;51.434;6.786;2022-11-20T02:38:13;5.90;85.40
36856;DHT22;22788;51.434;6.786;2022-11-20T02:40:39;6.00;85.00
36856;DHT22;22788;51.434;6.786;2022-11-20T02:43:07;6.00;85.00
36856;DHT22;22788;51.434;6.786;2022-11-20T02:45:33;6.00;85.10
36856;DHT22;22788;51.434;6.786;2022-11-20T02:48:00;5.90;85.30
36856;DHT22;22788;51.434;6.786;2022-11-20T02:50:26;5.90;85.40
36856;DHT22;22788;51.434;6.786;2022-11-20T02:52:52;6.00;85.20
36856;DHT22;22788;51.434;6.786;2022-11-20T02:55:18;6.00;85.20
36856;DHT22;22788;51.434;6.786;2022-11-20T02:57:44;6.00;85.40
36856;DHT22;22788;51.434;6.786;2022-11-20T03:00:13;6.10;84.90
36856;DHT22;22788;51.434;6.786;2022-11-20T03:02:39;6.20;84.70
36856;DHT22;22788;51.434;6.786;2022-11-20T03:05:06;6.10;84.50
36856;DHT22;22788;51.434;6.786;2022-11-20T03:07:32;6.00;85.10
36856;DHT22;22788;51.434;6.786;2022-11-20T03:09:58;6.10;84.80
36856;DHT22;22788;51.434;6.786;2022-11-20T03:12:24;6.20;84.70
36856;DHT22;22788;51.434;6.786;2022-11-20T03:14:50;5.90;85.00
36856;DHT22;22788;51.434;6.786;2022-11-20T03:17:17;6.00;85.20
36856;DHT22;22788;51.434;6.786;2022-11-20T03:19:43;6.00;85.10
36856;DHT22;22788;51.434;6.786;2022-11-20T03:22:09;5.90;85.60
36856;DHT22;22788;51.434;6.786;2022-11-20T03:24:35;5.90;85.70
36856;DHT22;22788;51.434;6.786;2022-11-20T03:27:01;5.90;85.70
36856;DHT22;22788;51.434;6.786;2022-11-20T03:29:27;6.00;85.40
36856;DHT22;22788;51.434;6.786;2022-11-20T03:31:53;6.10;85.00
36856;DHT22;22788;51.434;6.786;2022-11-20T03:34:21;6.00;85.10
36856;DHT22;22788;51.434;6.786;2022-11-20T03:36:47;5.90;85.80
36856;DHT22;22788;51.434;6.786;2022-11-20T03:39:13;6.00;85.50
36856;DHT22;22788;51.434;6.786;2022-11-20T03:41:40;5.90;85.90
36856;DHT22;22788;51.434;6.786;2022-11-20T03:44:08;5.90;85.80
36856;DHT22;22788;51.434;6.786;2022-11-20T03:46:35;6.00;85.60
36856;DHT22;22788;51.434;6.786;2022-11-20T03:49:01;5.90;85.60
36856;DHT22;22788;51.434;6.786;2022-11-20T03:51:30;6.00;85.90
36856;DHT22;22788;51.434;6.786;2022-11-20T03:53:58;6.10;85.70
36856;DHT22;22788;51.434;6.786;2022-11-20T03:56:26;6.00;85.40
36856;DHT22;22788;51.434;6.786;2022-11-20T03:58:53;6.00;85.60
36856;DHT22;22788;51.434;6.786;2022-11-20T04:01:21;5.90;85.80
36856;DHT22;22788;51.434;6.786;2022-11-20T04:03:48;5.80;86.20
36856;DHT22;22788;51.434;6.786;2022-11-20T04:06:15;5.70;87.10
36856;DHT22;22788;51.434;6.786;2022-11-20T04:08:43;5.80;86.60
36856;DHT22;22788;51.434;6.786;2022-11-20T04:11:11;5.90;86.00
36856;DHT22;22788;51.434;6.786;2022-11-20T04:13:38;6.00;86.00
36856;DHT22;22788;51.434;6.786;2022-11-20T04:16:04;6.00;85.80
36856;DHT22;22788;51.434;6.786;2022-11-20T04:18:31;5.90;86.10
36856;DHT22;22788;51.434;6.786;2022-11-20T04:20:57;6.00;86.40
36856;DHT22;22788;51.434;6.786;2022-11-20T04:23:23;6.00;85.70
36856;DHT22;22788;51.434;6.786;2022-11-20T04:25:51;5.90;85.00
36856;DHT22;22788;51.434;6.786;2022-11-20T04:28:17;5.80;86.60
36856;DHT22;22788;51.434;6.786;2022-11-20T04:30:43;5.90;86.40
36856;DHT22;22788;51.434;6.786;2022-11-20T04:33:10;6.10;86.00
36856;DHT22;22788;51.434;6.786;2022-11-20T04:35:36;6.10;85.80
36856;DHT22;22788;51.434;6.786;2022-11-20T04:38:03;5.80;82.20
36856;DHT22;22788;51.434;6.786;2022-11-20T04:40:29;5.80;86.60
36856;DHT22;22788;51.434;6.786;2022-11-20T04:42:57;5.90;86.90
36856;DHT22;22788;51.434;6.786;2022-11-20T04:45:23;6.00;86.00
36856;DHT22;22788;51.434;6.786;2022-11-20T04:47:49;5.90;86.70
36856;DHT22;22788;51.434;6.786;2022-11-20T04:50:15;6.00;86.20
36856;DHT22;22788;51.434;6.786;2022-11-20T04:52:41;5.90;86.50
36856;DHT22;22788;51.434;6.786;2022-11-20T04:55:07;6.00;86.40
36856;DHT22;22788;51.434;6.786;2022-11-20T04:57:34;6.10;85.90
36856;DHT22;22788;51.434;6.786;2022-11-20T05:00:01;5.90;86.90
36856;DHT22;22788;51.434;6.786;2022-11-20T05:02:27;5.90;86.70
36856;DHT22;22788;51.434;6.786;2022-11-20T05:04:53;5.80;87.00
36856;DHT22;22788;51.434;6.786;2022-11-20T05:07:19;5.90;87.00
36856;DHT22;22788;51.434;6.786;2022-11-20T05:09:45;6.10;86.40
36856;DHT22;22788;51.434;6.786;2022-11-20T05:12:11;5.90;86.00
36856;DHT22;22788;51.434;6.786;2022-11-20T05:14:37;6.00;86.50
36856;DHT22;22788;51.434;6.786;2022-11-20T05:17:04;6.00;86.60
36856;DHT22;22788;51.434;6.786;2022-11-20T05:19:30;6.10;86.20
36856;DHT22;22788;51.434;6.786;2022-11-20T05:21:56;6.10;86.30
36856;DHT22;22788;51.434;6.786;2022-11-20T05:24:22;6.10;86.10
36856;DHT22;22788;51.434;6.786;2022-11-20T05:26:48;6.20;86.20
36856;DHT22;22788;51.434;6.786;2022-11-20T05:29:14;6.10;86.10
36856;DHT22;22788;51.434;6.786;2022-11-20T05:31:41;6.10;86.20
36856;DHT22;22788;51.434;6.786;2022-11-20T05:34:08;6.10;86.50
36856;DHT22;22788;51.434;6.786;2022-11-20T05:36:34;6.10;86.40
36856;DHT22;22788;51.434;6.786;2022-11-20T05:39:00;6.10;86.50
36856;DHT22;22788;51.434;6.786;2022-11-20T05:41:26;6.10;86.50
36856;DHT22;22788;51.434;6.786;2022-11-20T05:43:52;6.10;86.50
36856;DHT22;22788;51.434;6.786;2022-11-20T05:46:19;6.10;86.40
36856;DHT22;22788;51.434;6.786;2022-11-20T05:48:46;6.10;86.40
36856;DHT22;22788;51.434;6.786;2022-11-20T05:51:16;6.00;86.50
36856;DHT22;22788;51.434;6.786;2022-11-20T05:53:42;6.10;86.80
36856;DHT22;22788;51.434;6.786;2022-11-20T05:56:11;6.10;86.80
36856;DHT22;22788;51.434;6.786;2022-11-20T05:58:37;6.10;86.80
36856;DHT22;22788;51.434;6.786;2022-11-20T06:01:05;6.10;86.80
36856;DHT22;22788;51.434;6.786;2022-11-20T06:03:31;6.10;86.90
36856;DHT22;22788;51.434;6.786;2022-11-20T06:05:58;6.10;87.00
36856;DHT22;22788;51.434;6.786;2022-11-20T06:08:26;6.10;86.90
36856;DHT22;22788;51.434;6.786;2022-11-20T06:10:52;6.10;87.00
36856;DHT22;22788;51.434;6.786;2022-11-20T06:13:18;6.10;87.00
36856;DHT22;22788;51.434;6.786;2022-11-20T06:15:48;6.10;87.40
36856;DHT22;22788;51.434;6.786;2022-11-20T06:18:14;6.10;87.00
36856;DHT22;22788;51.434;6.786;2022-11-20T06:20:40;6.10;87.20
36856;DHT22;22788;51.434;6.786;2022-11-20T06:23:06;6.10;87.20
36856;DHT22;22788;51.434;6.786;2022-11-20T06:25:37;6.00;87.50
36856;DHT22;22788;51.434;6.786;2022-11-20T06:28:03;6.10;87.50
36856;DHT22;22788;51.434;6.786;2022-11-20T06:30:29;6.10;87.40
36856;DHT22;22788;51.434;6.786;2022-11-20T06:32:55;6.10;87.20
36856;DHT22;22788;51.434;6.786;2022-11-20T06:35:21;6.20;87.20
36856;DHT22;22788;51.434;6.786;2022-11-20T06:37:47;6.10;87.40
36856;DHT22;22788;51.434;6.786;2022-11-20T06:40:13;6.10;87.40
36856;DHT22;22788;51.434;6.786;2022-11-20T06:42:48;6.10;87.40
36856;DHT22;22788;51.434;6.786;2022-11-20T06:45:15;6.20;87.40
36856;DHT22;22788;51.434;6.786;2022-11-20T06:47:41;6.10;87.50
36856;DHT22;22788;51.434;6.786;2022-11-20T06:50:07;6.10;87.60
36856;DHT22;22788;51.434;6.786;2022-11-20T06:52:33;6.10;87.80
36856;DHT22;22788;51.434;6.786;2022-11-20T06:54:59;6.10;87.80
36856;DHT22;22788;51.434;6.786;2022-11-20T06:57:25;6.00;87.90
36856;DHT22;22788;51.434;6.786;2022-11-20T06:59:53;6.10;87.90
36856;DHT22;22788;51.434;6.786;2022-11-20T07:02:19;6.10;87.90
36856;DHT22;22788;51.434;6.786;2022-11-20T07:04:45;6.10;87.80
36856;DHT22;22788;51.434;6.786;2022-11-20T07:07:11;6.10;87.70
36856;DHT22;22788;51.434;6.786;2022-11-20T07:09:37;6.10;87.90
36856;DHT22;22788;51.434;6.786;2022-11-20T07:12:03;6.10;87.80
36856;DHT22;22788;51.434;6.786;2022-11-20T07:14:29;6.10;87.90
36856;DHT22;22788;51.434;6.786;2022-11-20T07:16:57;6.20;87.80
36856;DHT22;22788;51.434;6.786;2022-11-20T07:19:23;6.10;87.80
36856;DHT22;22788;51.434;6.786;2022-11-20T07:21:49;6.10;87.80
36856;DHT22;22788;51.434;6.786;2022-11-20T07:24:15;6.20;87.70
36856;DHT22;22788;51.434;6.786;2022-11-20T07:26:41;6.10;87.90
36856;DHT22;22788;51.434;6.786;2022-11-20T07:29:07;5.80;87.30
36856;DHT22;22788;51.434;6.786;2022-11-20T07:31:33;5.80;89.70
36856;DHT22;22788;51.434;6.786;2022-11-20T07:34:00;5.90;89.10
36856;DHT22;22788;51.434;6.786;2022-11-20T07:36:26;5.80;89.10
36856;DHT22;22788;51.434;6.786;2022-11-20T07:38:52;5.80;89.70
36856;DHT22;22788;51.434;6.786;2022-11-20T07:41:18;5.90;89.00
36856;DHT22;22788;51.434;6.786;2022-11-20T07:43:44;5.80;89.30
36856;DHT22;22788;51.434;6.786;2022-11-20T07:46:10;5.90;89.10
36856;DHT22;22788;51.434;6.786;2022-11-20T07:48:36;5.90;88.90
36856;DHT22;22788;51.434;6.786;2022-11-20T07:51:04;5.90;89.20
36856;DHT22;22788;51.434;6.786;2022-11-20T07:53:30;5.90;89.10
36856;DHT22;22788;51.434;6.786;2022-11-20T07:55:59;5.90;89.20
36856;DHT22;22788;51.434;6.786;2022-11-20T07:58:25;6.00;89.10
36856;DHT22;22788;51.434;6.786;2022-11-20T08:00:51;6.10;88.80
36856;DHT22;22788;51.434;6.786;2022-11-20T08:03:17;6.00;88.70
36856;DHT22;22788;51.434;6.786;2022-11-20T08:05:43;6.00;89.00
36856;DHT22;22788;51.434;6.786;2022-11-20T08:08:11;6.00;89.30
36856;DHT22;22788;51.434;6.786;2022-11-20T08:10:37;5.90;89.00
36856;DHT22;22788;51.434;6.786;2022-11-20T08:13:03;6.00;89.10
36856;DHT22;22788;51.434;6.786;2022-11-20T08:15:29;6.00;89.10
36856;DHT22;22788;51.434;6.786;2022-11-20T08:18:00;6.00;89.10
36856;DHT22;22788;51.434;6.786;2022-11-20T08:20:26;6.00;89.10
36856;DHT22;22788;51.434;6.786;2022-11-20T08:22:52;6.00;89.10
36856;DHT22;22788;51.434;6.786;2022-11-20T08:25:19;6.10;89.00
36856;DHT22;22788;51.434;6.786;2022-11-20T08:27:45;6.10;89.00
36856;DHT22;22788;51.434;6.786;2022-11-20T08:30:12;6.00;89.00
36856;DHT22;22788;51.434;6.786;2022-11-20T08:32:38;6.10;88.90
36856;DHT22;22788;51.434;6.786;2022-11-20T08:35:05;6.10;89.10
36856;DHT22;22788;51.434;6.786;2022-11-20T08:37:31;6.10;89.00
36856;DHT22;22788;51.434;6.786;2022-11-20T08:39:57;6.10;89.00
36856;DHT22;22788;51.434;6.786;2022-11-20T08:42:24;6.10;89.20
36856;DHT22;22788;51.434;6.786;2022-11-20T08:44:50;6.00;89.30
36856;DHT22;22788;51.434;6.786;2022-11-20T08:47:16;6.00;89.40
36856;DHT22;22788;51.434;6.786;2022-11-20T08:49:42;6.00;89.20
36856;DHT22;22788;51.434;6.786;2022-11-20T08:52:08;6.00;89.60
36856;DHT22;22788;51.434;6.786;2022-11-20T08:54:34;6.00;89.40
36856;DHT22;22788;51.434;6.786;2022-11-20T08:57:00;6.10;89.40
36856;DHT22;22788;51.434;6.786;2022-11-20T08:59:28;6.10;89.30
36856;DHT22;22788;51.434;6.786;2022-11-20T09:01:54;6.10;90.00
36856;DHT22;22788;51.434;6.786;2022-11-20T09:04:20;6.20;89.50
36856;DHT22;22788;51.434;6.786;2022-11-20T09:06:46;6.10;89.40
36856;DHT22;22788;51.434;6.786;2022-11-20T09:09:12;6.10;89.60
36856;DHT22;22788;51.434;6.786;2022-11-20T09:11:38;6.20;89.60
36856;DHT22;22788;51.434;6.786;2022-11-20T09:14:04;6.10;89.40
36856;DHT22;22788;51.434;6.786;2022-11-20T09:16:31;6.20;89.20
36856;DHT22;22788;51.434;6.786;2022-11-20T09:18:57;6.20;89.20
36856;DHT22;22788;51.434;6.786;2022-11-20T09:21:23;6.20;89.40
36856;DHT22;22788;51.434;6.786;2022-11-20T09:23:49;6.20;89.50
36856;DHT22;22788;51.434;6.786;2022-11-20T09:26:15;6.20;89.50
36856;DHT22;22788;51.434;6.786;2022-11-20T09:28:41;6.20;89.40
36856;DHT22;22788;51.434;6.786;2022-11-20T09:31:09;6.20;89.60
36856;DHT22;22788;51.434;6.786;2022-11-20T09:33:37;6.20;89.60
36856;DHT22;22788;51.434;6.786;2022-11-20T09:36:03;6.20;89.60
36856;DHT22;22788;51.434;6.786;2022-11-20T09:38:29;6.20;89.30
36856;DHT22;22788;51.434;6.786;2022-11-20T09:40:57;6.20;89.70
36856;DHT22;22788;51.434;6.786;2022-11-20T09:43:32;6.10;90.00
36856;DHT22;22788;51.434;6.786;2022-11-20T09:46:08;6.20;89.80
36856;DHT22;22788;51.434;6.786;2022-11-20T09:48:45;6.20;89.60
36856;DHT22;22788;51.434;6.786;2022-11-20T09:51:22;6.20;89.70
36856;DHT22;22788;51.434;6.786;2022-11-20T09:53:58;6.20;89.80
36856;DHT22;22788;51.434;6.786;2022-11-20T09:56:28;6.20;89.70
36856;DHT22;22788;51.434;6.786;2022-11-20T09:58:57;6.30;89.70
36856;DHT22;22788;51.434;6.786;2022-11-20T10:01:26;6.20;89.50
36856;DHT22;22788;51.434;6.786;2022-11-20T10:03:59;6.20;89.70
36856;DHT22;22788;51.434;6.786;2022-11-20T10:06:30;6.20;89.70
36856;DHT22;22788;51.434;6.786;2022-11-20T10:09:07;6.10;90.00
36856;DHT22;22788;51.434;6.786;2022-11-20T10:11:46;6.20;89.80
36856;DHT22;22788;51.434;6.786;2022-11-20T10:14:21;6.20;89.80
36856;DHT22;22788;51.434;6.786;2022-11-20T10:16:58;6.10;90.00
36856;DHT22;22788;51.434;6.786;2022-11-20T10:19:37;6.00;90.00
36856;DHT22;22788;51.434;6.786;2022-11-20T10:22:13;6.00;90.20
36856;DHT22;22788;51.434;6.786;2022-11-20T10:24:51;6.10;90.20
36856;DHT22;22788;51.434;6.786;2022-11-20T10:30:39;6.20;90.10
36856;DHT22;22788;51.434;6.786;2022-11-20T10:33:11;6.20;90.10
36856;DHT22;22788;51.434;6.786;2022-11-20T10:35:42;6.20;90.00
36856;DHT22;22788;51.434;6.786;2022-11-20T10:38:20;6.10;90.10
36856;DHT22;22788;51.434;6.786;2022-11-20T10:40:50;6.20;90.10
36856;DHT22;22788;51.434;6.786;2022-11-20T10:43:21;6.10;90.20
36856;DHT22;22788;51.434;6.786;2022-11-20T10:45:55;6.20;90.00
36856;DHT22;22788;51.434;6.786;2022-11-20T10:48:23;6.00;90.10
36856;DHT22;22788;51.434;6.786;2022-11-20T10:51:15;5.80;90.60
36856;DHT22;22788;51.434;6.786;2022-11-20T10:53:57;6.00;90.50
36856;DHT22;22788;51.434;6.786;2022-11-20T10:56:30;6.00;90.70
36856;DHT22;22788;51.434;6.786;2022-11-20T11:01:51;6.20;90.20
36856;DHT22;22788;51.434;6.786;2022-11-20T11:04:28;6.20;90.10
36856;DHT22;22788;51.434;6.786;2022-11-20T11:07:04;6.30;90.00
36856;DHT22;22788;51.434;6.786;2022-11-20T11:09:34;6.20;90.00
36856;DHT22;22788;51.434;6.786;2022-11-20T11:12:01;6.20;90.30
36856;DHT22;22788;51.434;6.786;2022-11-20T11:14:41;6.20;90.30
36856;DHT22;22788;51.434;6.786;2022-11-20T11:17:25;6.20;90.30
36856;DHT22;22788;51.434;6.786;2022-11-20T11:20:16;6.30;90.20
36856;DHT22;22788;51.434;6.786;2022-11-20T11:22:46;6.20;90.20
36856;DHT22;22788;51.434;6.786;2022-11-20T11:25:20;6.30;90.20
36856;DHT22;22788;51.434;6.786;2022-11-20T11:27:48;6.20;90.10
36856;DHT22;22788;51.434;6.786;2022-11-20T11:30:16;6.30;90.20
36856;DHT22;22788;51.434;6.786;2022-11-20T11:32:42;6.30;90.20
36856;DHT22;22788;51.434;6.786;2022-11-20T11:35:20;6.30;90.20
36856;DHT22;22788;51.434;6.786;2022-11-20T11:37:48;6.30;90.30
36856;DHT22;22788;51.434;6.786;2022-11-20T11:40:15;6.30;90.20
36856;DHT22;22788;51.434;6.786;2022-11-20T11:42:43;6.30;90.20
36856;DHT22;22788;51.434;6.786;2022-11-20T11:45:14;6.40;90.10
36856;DHT22;22788;51.434;6.786;2022-11-20T11:47:45;6.30;90.20
36856;DHT22;22788;51.434;6.786;2022-11-20T11:50:17;6.40;90.10
36856;DHT22;22788;51.434;6.786;2022-11-20T11:52:48;6.40;90.20
36856;DHT22;22788;51.434;6.786;2022-11-20T11:55:22;6.40;90.20
36856;DHT22;22788;51.434;6.786;2022-11-20T11:57:55;6.40;90.20
36856;DHT22;22788;51.434;6.786;2022-11-20T12:00:25;6.40;90.00
36856;DHT22;22788;51.434;6.786;2022-11-20T12:03:04;6.40;90.10
36856;DHT22;22788;51.434;6.786;2022-11-20T12:05:38;6.40;90.20
36856;DHT22;22788;51.434;6.786;2022-11-20T12:08:15;6.40;90.20
36856;DHT22;22788;51.434;6.786;2022-11-20T12:10:45;6.40;90.20
36856;DHT22;22788;51.434;6.786;2022-11-20T12:13:28;6.40;90.30
36856;DHT22;22788;51.434;6.786;2022-11-20T12:15:58;6.40;90.30
36856;DHT22;22788;51.434;6.786;2022-11-20T12:18:24;6.40;90.30
36856;DHT22;22788;51.434;6.786;2022-11-20T12:20:59;6.40;90.20
36856;DHT22;22788;51.434;6.786;2022-11-20T12:23:34;6.50;90.20
36856;DHT22;22788;51.434;6.786;2022-11-20T12:26:08;6.50;90.10
36856;DHT22;22788;51.434;6.786;2022-11-20T12:28:48;6.50;90.20
36856;DHT22;22788;51.434;6.786;2022-11-20T12:31:40;6.50;90.20
36856;DHT22;22788;51.434;6.786;2022-11-20T12:34:27;6.50;90.20
36856;DHT22;22788;51.434;6.786;2022-11-20T12:37:03;6.50;90.20
36856;DHT22;22788;51.434;6.786;2022-11-20T12:39:41;6.50;90.20
36856;DHT22;22788;51.434;6.786;2022-11-20T12:42:43;6.50;90.20
36856;DHT22;22788;51.434;6.786;2022-11-20T12:45:42;6.50;90.20
36856;DHT22;22788;51.434;6.786;2022-11-20T12:48:29;6.50;90.30
36856;DHT22;22788;51.434;6.786;2022-11-20T12:51:16;6.50;90.40
36856;DHT22;22788;51.434;6.786;2022-11-20T12:53:52;6.60;90.20
36856;DHT22;22788;51.434;6.786;2022-11-20T12:56:33;6.50;90.30
36856;DHT22;22788;51.434;6.786;2022-11-20T12:59:23;6.60;90.20
36856;DHT22;22788;51.434;6.786;2022-11-20T13:01:56;6.60;90.40
36856;DHT22;22788;51.434;6.786;2022-11-20T13:04:43;6.60;90.20
36856;DHT22;22788;51.434;6.786;2022-11-20T13:07:17;6.50;90.40
36856;DHT22;22788;51.434;6.786;2022-11-20T13:09:45;6.50;90.50
36856;DHT22;22788;51.434;6.786;2022-11-20T13:12:17;6.60;90.40
36856;DHT22;22788;51.434;6.786;2022-11-20T13:14:50;6.60;90.40
36856;DHT22;22788;51.434;6.786;2022-11-20T13:17:22;6.60;90.40
36856;DHT22;22788;51.434;6.786;2022-11-20T13:19:52;6.40;90.60
36856;DHT22;22788;51.434;6.786;2022-11-20T13:22:25;6.60;90.50
36856;DHT22;22788;51.434;6.786;2022-11-20T13:24:51;6.60;90.40
36856;DHT22;22788;51.434;6.786;2022-11-20T13:27:20;6.60;90.30
36856;DHT22;22788;51.434;6.786;2022-11-20T13:29:59;6.60;90.50
36856;DHT22;22788;51.434;6.786;2022-11-20T13:32:26;6.60;90.40
36856;DHT22;22788;51.434;6.786;2022-11-20T13:34:54;6.60;90.50
36856;DHT22;22788;51.434;6.786;2022-11-20T13:37:27;6.60;90.50
36856;DHT22;22788;51.434;6.786;2022-11-20T13:40:20;6.60;90.50
36856;DHT22;22788;51.434;6.786;2022-11-20T13:42:56;6.60;90.60
36856;DHT22;22788;51.434;6.786;2022-11-20T13:45:27;6.60;90.50
36856;DHT22;22788;51.434;6.786;2022-11-20T13:47:55;6.60;90.50
36856;DHT22;22788;51.434;6.786;2022-11-20T13:50:31;6.60;90.60
36856;DHT22;22788;51.434;6.786;2022-11-20T13:53:08;6.60;90.50
36856;DHT22;22788;51.434;6.786;2022-11-20T13:55:42;6.60;90.70
36856;DHT22;22788;51.434;6.786;2022-11-20T13:58:30;6.60;90.70
36856;DHT22;22788;51.434;6.786;2022-11-20T14:01:09;6.60;90.70
36856;DHT22;22788;51.434;6.786;2022-11-20T14:03:36;6.60;90.80
36856;DHT22;22788;51.434;6.786;2022-11-20T14:06:04;6.60;90.80
36856;DHT22;22788;51.434;6.786;2022-11-20T14:08:35;6.60;90.90
36856;DHT22;22788;51.434;6.786;2022-11-20T14:11:04;6.60;90.90
36856;DHT22;22788;51.434;6.786;2022-11-20T14:13:31;6.60;90.90
36856;DHT22;22788;51.434;6.786;2022-11-20T14:15:58;6.60;90.90
36856;DHT22;22788;51.434;6.786;2022-11-20T14:18:25;6.60;90.90
36856;DHT22;22788;51.434;6.786;2022-11-20T14:20:52;6.60;90.90
36856;DHT22;22788;51.434;6.786;2022-11-20T14:23:24;6.60;90.90
36856;DHT22;22788;51.434;6.786;2022-11-20T14:25:51;6.50;91.00
36856;DHT22;22788;51.434;6.786;2022-11-20T14:28:24;6.60;91.10
36856;DHT22;22788;51.434;6.786;2022-11-20T14:30:52;6.60;91.20
36856;DHT22;22788;51.434;6.786;2022-11-20T14:33:19;6.60;91.00
36856;DHT22;22788;51.434;6.786;2022-11-20T14:35:47;6.60;91.10
36856;DHT22;22788;51.434;6.786;2022-11-20T14:38:16;6.60;91.10
36856;DHT22;22788;51.434;6.786;2022-11-20T14:40:42;6.60;91.30
36856;DHT22;22788;51.434;6.786;2022-11-20T14:43:18;6.60;91.20
36856;DHT22;22788;51.434;6.786;2022-11-20T14:45:47;6.60;91.20
36856;DHT22;22788;51.434;6.786;2022-11-20T14:48:16;6.60;91.30
36856;DHT22;22788;51.434;6.786;2022-11-20T14:50:42;6.60;91.20
36856;DHT22;22788;51.434;6.786;2022-11-20T14:53:08;6.70;91.10
36856;DHT22;22788;51.434;6.786;2022-11-20T14:55:36;6.70;91.10
36856;DHT22;22788;51.434;6.786;2022-11-20T14:58:04;6.70;91.20
36856;DHT22;22788;51.434;6.786;2022-11-20T15:00:31;6.70;91.20
36856;DHT22;22788;51.434;6.786;2022-11-20T15:02:58;6.70;91.30
36856;DHT22;22788;51.434;6.786;2022-11-20T15:05:44;6.70;91.20
36856;DHT22;22788;51.434;6.786;2022-11-20T15:08:12;6.60;91.30
36856;DHT22;22788;51.434;6.786;2022-11-20T15:10:39;6.70;91.30
36856;DHT22;22788;51.434;6.786;2022-11-20T15:13:12;6.70;91.30
36856;DHT22;22788;51.434;6.786;2022-11-20T15:15:45;6.70;91.30
36856;DHT22;22788;51.434;6.786;2022-11-20T15:18:13;6.70;91.30
36856;DHT22;22788;51.434;6.786;2022-11-20T15:20:41;6.70;91.30
36856;DHT22;22788;51.434;6.786;2022-11-20T15:23:10;6.70;91.50
36856;DHT22;22788;51.434;6.786;2022-11-20T15:25:38;6.70;91.40
36856;DHT22;22788;51.434;6.786;2022-11-20T15:28:14;6.70;91.40
36856;DHT22;22788;51.434;6.786;2022-11-20T15:30:41;6.70;91.40
36856;DHT22;22788;51.434;6.786;2022-11-20T15:33:08;6.70;91.30
36856;DHT22;22788;51.434;6.786;2022-11-20T15:35:35;6.70;91.50
36856;DHT22;22788;51.434;6.786;2022-11-20T15:38:02;6.70;91.50
36856;DHT22;22788;51.434;6.786;2022-11-20T15:40:28;6.70;91.50
36856;DHT22;22788;51.434;6.786;2022-11-20T15:42:54;6.70;91.50
36856;DHT22;22788;51.434;6.786;2022-11-20T15:45:29;6.70;91.50
36856;DHT22;22788;51.434;6.786;2022-11-20T15:47:57;6.70;91.50
36856;DHT22;22788;51.434;6.786;2022-11-20T15:50:27;6.70;91.60
36856;DHT22;22788;51.434;6.786;2022-11-20T15:52:55;6.60;91.60
36856;DHT22;22788;51.434;6.786;2022-11-20T15:55:22;6.70;91.60
36856;DHT22;22788;51.434;6.786;2022-11-20T15:57:48;6.70;91.60
36856;DHT22;22788;51.434;6.786;2022-11-20T16:00:15;6.70;91.60
36856;DHT22;22788;51.434;6.786;2022-11-20T16:02:41;6.70;91.60